sensor_id;sensor_type;location;lat;lon;timestamp;P1;durP1;ratioP1;P2;durP2;ratioP2
23360;SDS011;11852;50.082;18.554;2024-01-15T00:00:25;14.7;;;8.7;;
23360;SDS011;11852;50.082;18.554;2024-01-15T00:01:29;14.1;;;8.2;;
23360;SDS011;11852;50.082;18.554;2024-01-15T00:02:34;14.0;;;8.4;;
23360;SDS011;11852;50.082;18.554;2024-01-15T00:03:39;13.5;;;8.3;;
23360;SDS011;11852;50.082;18.554;2024-01-15T00:04:43;13.3;;;8.0;;
23360;SDS011;11852;50.082;18.554;2024-01-15T00:05:48;13.0;;;7.3;;
23360;SDS011;11852;50.082;18.554;2024-01-15T00:06:53;17.5;;;8.9;;
23360;SDS011;11852;50.082;18.554;2024-01-15T00:07:58;13.2;;;7.8;;
23360;SDS011;11852;50.082;18.554;2024-01-15T00:09:03;12.8;;;7.7;;
23360;SDS011;11852;50.082;18.554;2024-01-15T00:10:07;11.6;;;7.1;;
23360;SDS011;11852;50.082;18.554;2024-01-15T00:11:12;15.7;;;8.3;;
23360;SDS011;11852;50.082;18.554;2024-01-15T00:12:17;14.3;;;8.3;;
23360;SDS011;11852;50.082;18.554;2024-01-15T00:13:22;13.4;;;7.9;;
23360;SDS011;11852;50.082;18.554;2024-01-15T00:14:27;13.4;;;7.9;;
23360;SDS011;11852;50.082;18.554;2024-01-15T00:15:31;12.3;;;7.9;;
23360;SDS011;11852;50.082;18.554;2024-01-15T00:16:36;14.4;;;8.5;;
23360;SDS011;11852;50.082;18.554;2024-01-15T00:17:41;12.0;;;7.1;;
23360;SDS011;11852;50.082;18.554;2024-01-15T00:18:45;13.0;;;7.6;;
23360;SDS011;11852;50.082;18.554;2024-01-15T00:19:50;13.7;;;7.5;;
23360;SDS011;11852;50.082;18.554;2024-01-15T00:20:57;12.8;;;7.2;;
23360;SDS011;11852;50.082;18.554;2024-01-15T00:22:02;11.6;;;6.9;;
23360;SDS011;11852;50.082;18.554;2024-01-15T00:23:07;14.5;;;8.1;;
23360;SDS011;11852;50.082;18.554;2024-01-15T00:24:12;12.5;;;7.6;;
23360;SDS011;11852;50.082;18.554;2024-01-15T00:25:17;12.6;;;7.2;;
23360;SDS011;11852;50.082;18.554;2024-01-15T00:26:23;13.0;;;7.6;;
23360;SDS011;11852;50.082;18.554;2024-01-15T00:27:28;13.0;;;7.6;;
23360;SDS011;11852;50.082;18.554;2024-01-15T00:28:33;12.6;;;7.6;;
23360;SDS011;11852;50.082;18.554;2024-01-15T00:29:38;13.6;;;8.2;;
23360;SDS011;11852;50.082;18.554;2024-01-15T00:30:42;13.2;;;8.0;;
23360;SDS011;11852;50.082;18.554;2024-01-15T00:31:47;14.2;;;8.5;;
23360;SDS011;11852;50.082;18.554;2024-01-15T00:32:52;12.1;;;7.6;;
23360;SDS011;11852;50.082;18.554;2024-01-15T00:33:57;12.9;;;7.5;;
23360;SDS011;11852;50.082;18.554;2024-01-15T00:35:01;12.6;;;6.8;;
23360;SDS011;11852;50.082;18.554;2024-01-15T00:36:06;12.9;;;7.6;;
23360;SDS011;11852;50.082;18.554;2024-01-15T00:37:13;13.7;;;8.2;;
23360;SDS011;11852;50.082;18.554;2024-01-15T00:38:18;12.3;;;6.9;;
23360;SDS011;11852;50.082;18.554;2024-01-15T00:39:22;13.9;;;8.0;;
23360;SDS011;11852;50.082;18.554;2024-01-15T00:40:27;13.2;;;8.4;;
23360;SDS011;11852;50.082;18.554;2024-01-15T00:41:32;14.1;;;7.9;;
23360;SDS011;11852;50.082;18.554;2024-01-15T00:42:37;13.0;;;8.0;;
23360;SDS011;11852;50.082;18.554;2024-01-15T00:43:41;11.9;;;7.0;;
23360;SDS011;11852;50.082;18.554;2024-01-15T00:44:46;12.9;;;7.3;;
23360;SDS011;11852;50.082;18.554;2024-01-15T00:45:51;13.1;;;8.1;;
23360;SDS011;11852;50.082;18.554;2024-01-15T00:46:55;11.7;;;7.4;;
23360;SDS011;11852;50.082;18.554;2024-01-15T00:48:00;14.1;;;8.2;;
23360;SDS011;11852;50.082;18.554;2024-01-15T00:49:05;13.5;;;7.9;;
23360;SDS011;11852;50.082;18.554;2024-01-15T00:50:09;14.6;;;8.5;;
23360;SDS011;11852;50.082;18.554;2024-01-15T00:51:14;13.9;;;7.3;;
23360;SDS011;11852;50.082;18.554;2024-01-15T00:52:19;14.7;;;8.1;;
23360;SDS011;11852;50.082;18.554;2024-01-15T00:53:25;13.6;;;7.5;;
23360;SDS011;11852;50.082;18.554;2024-01-15T00:54:29;11.9;;;6.9;;
23360;SDS011;11852;50.082;18.554;2024-01-15T00:55:33;12.8;;;6.5;;
23360;SDS011;11852;50.082;18.554;2024-01-15T00:56:41;13.4;;;7.4;;
23360;SDS011;11852;50.082;18.554;2024-01-15T00:57:49;13.4;;;7.2;;
23360;SDS011;11852;50.082;18.554;2024-01-15T00:58:57;13.9;;;6.7;;
23360;SDS011;11852;50.082;18.554;2024-01-15T01:00:02;13.4;;;7.7;;
23360;SDS011;11852;50.082;18.554;2024-01-15T01:01:06;11.4;;;6.5;;
23360;SDS011;11852;50.082;18.554;2024-01-15T01:02:11;11.1;;;6.8;;
23360;SDS011;11852;50.082;18.554;2024-01-15T01:03:16;11.8;;;6.9;;
23360;SDS011;11852;50.082;18.554;2024-01-15T01:04:23;11.1;;;6.8;;
23360;SDS011;11852;50.082;18.554;2024-01-15T01:05:28;12.6;;;7.5;;
23360;SDS011;11852;50.082;18.554;2024-01-15T01:06:33;11.7;;;6.2;;
23360;SDS011;11852;50.082;18.554;2024-01-15T01:07:40;13.1;;;7.3;;
23360;SDS011;11852;50.082;18.554;2024-01-15T01:08:48;12.2;;;6.7;;
23360;SDS011;11852;50.082;18.554;2024-01-15T01:09:52;12.1;;;6.7;;
23360;SDS011;11852;50.082;18.554;2024-01-15T01:10:57;13.2;;;7.3;;
23360;SDS011;11852;50.082;18.554;2024-01-15T01:12:02;10.9;;;5.9;;
23360;SDS011;11852;50.082;18.554;2024-01-15T01:13:07;11.3;;;6.8;;
23360;SDS011;11852;50.082;18.554;2024-01-15T01:14:12;11.5;;;6.6;;
23360;SDS011;11852;50.082;18.554;2024-01-15T01:15:16;11.6;;;6.9;;
23360;SDS011;11852;50.082;18.554;2024-01-15T01:16:21;11.6;;;6.5;;
23360;SDS011;11852;50.082;18.554;2024-01-15T01:17:26;12.5;;;6.9;;
23360;SDS011;11852;50.082;18.554;2024-01-15T01:18:34;10.1;;;5.9;;
23360;SDS011;11852;50.082;18.554;2024-01-15T01:19:38;11.1;;;6.2;;
23360;SDS011;11852;50.082;18.554;2024-01-15T01:20:47;9.7;;;5.9;;
23360;SDS011;11852;50.082;18.554;2024-01-15T01:21:52;10.3;;;6.6;;
23360;SDS011;11852;50.082;18.554;2024-01-15T01:23:03;11.0;;;6.0;;
23360;SDS011;11852;50.082;18.554;2024-01-15T01:24:08;9.9;;;6.3;;
23360;SDS011;11852;50.082;18.554;2024-01-15T01:25:12;10.5;;;6.2;;
23360;SDS011;11852;50.082;18.554;2024-01-15T01:26:17;10.6;;;6.2;;
23360;SDS011;11852;50.082;18.554;2024-01-15T01:27:25;10.2;;;5.9;;
23360;SDS011;11852;50.082;18.554;2024-01-15T01:28:29;10.2;;;6.4;;
23360;SDS011;11852;50.082;18.554;2024-01-15T01:29:34;9.8;;;5.9;;
23360;SDS011;11852;50.082;18.554;2024-01-15T01:30:42;11.4;;;6.7;;
23360;SDS011;11852;50.082;18.554;2024-01-15T01:31:46;10.9;;;6.4;;
23360;SDS011;11852;50.082;18.554;2024-01-15T01:32:54;10.0;;;5.9;;
23360;SDS011;11852;50.082;18.554;2024-01-15T01:34:02;10.7;;;6.2;;
23360;SDS011;11852;50.082;18.554;2024-01-15T01:35:06;11.0;;;6.6;;
23360;SDS011;11852;50.082;18.554;2024-01-15T01:36:16;12.2;;;6.9;;
23360;SDS011;11852;50.082;18.554;2024-01-15T01:37:21;11.1;;;6.1;;
23360;SDS011;11852;50.082;18.554;2024-01-15T01:38:28;11.3;;;6.8;;
23360;SDS011;11852;50.082;18.554;2024-01-15T01:39:33;10.7;;;6.4;;
23360;SDS011;11852;50.082;18.554;2024-01-15T01:40:37;11.4;;;6.4;;
23360;SDS011;11852;50.082;18.554;2024-01-15T01:41:45;10.6;;;6.2;;
23360;SDS011;11852;50.082;18.554;2024-01-15T01:42:50;9.2;;;5.7;;
23360;SDS011;11852;50.082;18.554;2024-01-15T01:43:57;10.9;;;6.1;;
23360;SDS011;11852;50.082;18.554;2024-01-15T01:45:04;9.8;;;5.3;;
23360;SDS011;11852;50.082;18.554;2024-01-15T01:46:11;9.7;;;5.9;;
23360;SDS011;11852;50.082;18.554;2024-01-15T01:47:16;9.8;;;5.8;;
23360;SDS011;11852;50.082;18.554;2024-01-15T01:48:21;9.7;;;5.9;;
23360;SDS011;11852;50.082;18.554;2024-01-15T01:49:26;10.6;;;5.7;;
23360;SDS011;11852;50.082;18.554;2024-01-15T01:50:30;9.8;;;5.7;;
23360;SDS011;11852;50.082;18.554;2024-01-15T01:51:40;9.9;;;6.0;;
23360;SDS011;11852;50.082;18.554;2024-01-15T01:52:45;10.3;;;6.0;;
23360;SDS011;11852;50.082;18.554;2024-01-15T01:53:52;9.5;;;5.8;;
23360;SDS011;11852;50.082;18.554;2024-01-15T01:54:58;10.6;;;6.2;;
23360;SDS011;11852;50.082;18.554;2024-01-15T01:56:04;11.1;;;6.3;;
23360;SDS011;11852;50.082;18.554;2024-01-15T01:57:12;10.3;;;6.0;;
23360;SDS011;11852;50.082;18.554;2024-01-15T01:58:23;9.6;;;5.3;;
23360;SDS011;11852;50.082;18.554;2024-01-15T01:59:27;9.8;;;5.4;;
23360;SDS011;11852;50.082;18.554;2024-01-15T02:00:32;9.1;;;5.5;;
23360;SDS011;11852;50.082;18.554;2024-01-15T02:01:39;9.9;;;5.9;;
23360;SDS011;11852;50.082;18.554;2024-01-15T02:02:47;8.5;;;5.0;;
23360;SDS011;11852;50.082;18.554;2024-01-15T02:03:52;11.2;;;5.8;;
23360;SDS011;11852;50.082;18.554;2024-01-15T02:04:57;9.3;;;5.4;;
23360;SDS011;11852;50.082;18.554;2024-01-15T02:06:01;10.5;;;5.2;;
23360;SDS011;11852;50.082;18.554;2024-01-15T02:07:06;9.4;;;5.0;;
23360;SDS011;11852;50.082;18.554;2024-01-15T02:08:14;9.1;;;5.4;;
23360;SDS011;11852;50.082;18.554;2024-01-15T02:09:18;9.8;;;5.5;;
23360;SDS011;11852;50.082;18.554;2024-01-15T02:10:26;8.2;;;4.7;;
23360;SDS011;11852;50.082;18.554;2024-01-15T02:11:33;9.3;;;5.2;;
23360;SDS011;11852;50.082;18.554;2024-01-15T02:12:38;10.1;;;5.4;;
23360;SDS011;11852;50.082;18.554;2024-01-15T02:13:42;9.3;;;5.1;;
23360;SDS011;11852;50.082;18.554;2024-01-15T02:14:47;9.3;;;5.2;;
23360;SDS011;11852;50.082;18.554;2024-01-15T02:15:52;8.5;;;5.0;;
23360;SDS011;11852;50.082;18.554;2024-01-15T02:16:57;9.1;;;5.0;;
23360;SDS011;11852;50.082;18.554;2024-01-15T02:18:07;8.7;;;5.0;;
23360;SDS011;11852;50.082;18.554;2024-01-15T02:19:17;8.6;;;5.0;;
23360;SDS011;11852;50.082;18.554;2024-01-15T02:20:22;8.9;;;5.0;;
23360;SDS011;11852;50.082;18.554;2024-01-15T02:21:26;9.7;;;5.2;;
23360;SDS011;11852;50.082;18.554;2024-01-15T02:22:31;10.4;;;5.2;;
23360;SDS011;11852;50.082;18.554;2024-01-15T02:23:36;9.9;;;5.0;;
23360;SDS011;11852;50.082;18.554;2024-01-15T02:24:44;9.5;;;5.1;;
23360;SDS011;11852;50.082;18.554;2024-01-15T02:25:51;9.4;;;5.1;;
23360;SDS011;11852;50.082;18.554;2024-01-15T02:26:59;9.0;;;5.0;;
23360;SDS011;11852;50.082;18.554;2024-01-15T02:28:09;9.5;;;5.2;;
23360;SDS011;11852;50.082;18.554;2024-01-15T02:29:16;10.2;;;5.7;;
23360;SDS011;11852;50.082;18.554;2024-01-15T02:30:20;8.8;;;5.2;;
23360;SDS011;11852;50.082;18.554;2024-01-15T02:31:31;9.2;;;5.2;;
23360;SDS011;11852;50.082;18.554;2024-01-15T02:32:43;9.3;;;5.6;;
23360;SDS011;11852;50.082;18.554;2024-01-15T02:33:51;8.1;;;4.9;;
23360;SDS011;11852;50.082;18.554;2024-01-15T02:35:04;8.7;;;5.2;;
23360;SDS011;11852;50.082;18.554;2024-01-15T02:36:11;8.4;;;5.0;;
23360;SDS011;11852;50.082;18.554;2024-01-15T02:37:16;9.4;;;5.4;;
23360;SDS011;11852;50.082;18.554;2024-01-15T02:38:20;9.3;;;5.3;;
23360;SDS011;11852;50.082;18.554;2024-01-15T02:39:28;7.8;;;4.4;;
23360;SDS011;11852;50.082;18.554;2024-01-15T02:40:33;7.5;;;4.4;;
23360;SDS011;11852;50.082;18.554;2024-01-15T02:41:39;9.2;;;4.8;;
23360;SDS011;11852;50.082;18.554;2024-01-15T02:42:49;7.9;;;4.5;;
23360;SDS011;11852;50.082;18.554;2024-01-15T02:43:59;8.8;;;5.3;;
23360;SDS011;11852;50.082;18.554;2024-01-15T02:45:07;9.4;;;5.1;;
23360;SDS011;11852;50.082;18.554;2024-01-15T02:46:12;9.0;;;5.0;;
23360;SDS011;11852;50.082;18.554;2024-01-15T02:47:17;8.4;;;5.0;;
23360;SDS011;11852;50.082;18.554;2024-01-15T02:48:21;9.0;;;4.8;;
23360;SDS011;11852;50.082;18.554;2024-01-15T02:49:26;8.8;;;5.1;;
23360;SDS011;11852;50.082;18.554;2024-01-15T02:50:31;8.2;;;4.8;;
23360;SDS011;11852;50.082;18.554;2024-01-15T02:51:36;9.6;;;5.4;;
23360;SDS011;11852;50.082;18.554;2024-01-15T02:52:43;8.4;;;4.8;;
23360;SDS011;11852;50.082;18.554;2024-01-15T02:53:49;9.1;;;5.2;;
23360;SDS011;11852;50.082;18.554;2024-01-15T02:54:55;8.6;;;5.0;;
23360;SDS011;11852;50.082;18.554;2024-01-15T02:56:00;9.6;;;5.1;;
23360;SDS011;11852;50.082;18.554;2024-01-15T02:57:05;7.5;;;4.7;;
23360;SDS011;11852;50.082;18.554;2024-01-15T02:58:10;8.1;;;4.8;;
23360;SDS011;11852;50.082;18.554;2024-01-15T02:59:17;8.9;;;5.1;;
23360;SDS011;11852;50.082;18.554;2024-01-15T03:00:22;8.4;;;4.8;;
23360;SDS011;11852;50.082;18.554;2024-01-15T03:01:32;9.5;;;5.1;;
23360;SDS011;11852;50.082;18.554;2024-01-15T03:02:39;9.3;;;5.3;;
23360;SDS011;11852;50.082;18.554;2024-01-15T03:03:44;9.4;;;5.1;;
23360;SDS011;11852;50.082;18.554;2024-01-15T03:04:51;9.2;;;5.3;;
23360;SDS011;11852;50.082;18.554;2024-01-15T03:05:59;8.1;;;4.8;;
23360;SDS011;11852;50.082;18.554;2024-01-15T03:07:06;8.7;;;5.0;;
23360;SDS011;11852;50.082;18.554;2024-01-15T03:08:11;8.7;;;5.3;;
23360;SDS011;11852;50.082;18.554;2024-01-15T03:09:15;9.2;;;5.2;;
23360;SDS011;11852;50.082;18.554;2024-01-15T03:10:20;8.6;;;4.7;;
23360;SDS011;11852;50.082;18.554;2024-01-15T03:11:36;8.3;;;4.6;;
23360;SDS011;11852;50.082;18.554;2024-01-15T03:12:37;8.5;;;4.6;;
23360;SDS011;11852;50.082;18.554;2024-01-15T03:13:48;8.3;;;4.7;;
23360;SDS011;11852;50.082;18.554;2024-01-15T03:14:53;8.8;;;5.3;;
23360;SDS011;11852;50.082;18.554;2024-01-15T03:15:57;7.9;;;4.5;;
23360;SDS011;11852;50.082;18.554;2024-01-15T03:17:05;11.9;;;5.1;;
23360;SDS011;11852;50.082;18.554;2024-01-15T03:18:10;10.5;;;4.8;;
23360;SDS011;11852;50.082;18.554;2024-01-15T03:19:17;8.7;;;5.2;;
23360;SDS011;11852;50.082;18.554;2024-01-15T03:20:22;8.4;;;4.8;;
23360;SDS011;11852;50.082;18.554;2024-01-15T03:21:29;8.8;;;4.8;;
23360;SDS011;11852;50.082;18.554;2024-01-15T03:22:37;9.0;;;5.0;;
23360;SDS011;11852;50.082;18.554;2024-01-15T03:23:47;8.5;;;4.6;;
23360;SDS011;11852;50.082;18.554;2024-01-15T03:24:52;7.6;;;4.5;;
23360;SDS011;11852;50.082;18.554;2024-01-15T03:25:56;8.1;;;4.6;;
23360;SDS011;11852;50.082;18.554;2024-01-15T03:27:01;9.0;;;5.0;;
23360;SDS011;11852;50.082;18.554;2024-01-15T03:28:09;9.9;;;5.7;;
23360;SDS011;11852;50.082;18.554;2024-01-15T03:29:13;8.9;;;5.2;;
23360;SDS011;11852;50.082;18.554;2024-01-15T03:30:18;8.0;;;4.7;;
23360;SDS011;11852;50.082;18.554;2024-01-15T03:31:23;9.5;;;5.0;;
23360;SDS011;11852;50.082;18.554;2024-01-15T03:32:27;9.1;;;5.0;;
23360;SDS011;11852;50.082;18.554;2024-01-15T03:33:32;8.5;;;4.7;;
23360;SDS011;11852;50.082;18.554;2024-01-15T03:34:37;9.5;;;5.5;;
23360;SDS011;11852;50.082;18.554;2024-01-15T03:35:44;10.5;;;5.7;;
23360;SDS011;11852;50.082;18.554;2024-01-15T03:36:49;9.6;;;5.9;;
23360;SDS011;11852;50.082;18.554;2024-01-15T03:37:53;9.8;;;5.6;;
23360;SDS011;11852;50.082;18.554;2024-01-15T03:39:01;8.8;;;4.9;;
23360;SDS011;11852;50.082;18.554;2024-01-15T03:40:06;9.1;;;5.2;;
23360;SDS011;11852;50.082;18.554;2024-01-15T03:41:11;10.0;;;5.4;;
23360;SDS011;11852;50.082;18.554;2024-01-15T03:42:15;10.0;;;5.6;;
23360;SDS011;11852;50.082;18.554;2024-01-15T03:43:20;9.9;;;5.6;;
23360;SDS011;11852;50.082;18.554;2024-01-15T03:44:25;10.2;;;5.5;;
23360;SDS011;11852;50.082;18.554;2024-01-15T03:45:29;8.2;;;4.7;;
23360;SDS011;11852;50.082;18.554;2024-01-15T03:46:34;10.6;;;6.0;;
23360;SDS011;11852;50.082;18.554;2024-01-15T03:47:39;9.4;;;4.9;;
23360;SDS011;11852;50.082;18.554;2024-01-15T03:48:46;10.0;;;5.8;;
23360;SDS011;11852;50.082;18.554;2024-01-15T03:49:54;9.7;;;5.3;;
23360;SDS011;11852;50.082;18.554;2024-01-15T03:50:58;11.9;;;5.9;;
23360;SDS011;11852;50.082;18.554;2024-01-15T03:52:03;9.5;;;5.3;;
23360;SDS011;11852;50.082;18.554;2024-01-15T03:53:08;9.9;;;5.4;;
23360;SDS011;11852;50.082;18.554;2024-01-15T03:54:13;10.7;;;6.0;;
23360;SDS011;11852;50.082;18.554;2024-01-15T03:55:17;8.9;;;5.5;;
23360;SDS011;11852;50.082;18.554;2024-01-15T03:56:22;11.6;;;6.0;;
23360;SDS011;11852;50.082;18.554;2024-01-15T03:57:27;13.1;;;6.2;;
23360;SDS011;11852;50.082;18.554;2024-01-15T03:58:34;9.6;;;5.4;;
23360;SDS011;11852;50.082;18.554;2024-01-15T03:59:40;9.7;;;5.2;;
23360;SDS011;11852;50.082;18.554;2024-01-15T04:00:44;10.4;;;5.7;;
23360;SDS011;11852;50.082;18.554;2024-01-15T04:01:51;9.6;;;5.5;;
23360;SDS011;11852;50.082;18.554;2024-01-15T04:02:59;9.3;;;5.3;;
23360;SDS011;11852;50.082;18.554;2024-01-15T04:04:04;9.6;;;5.5;;
23360;SDS011;11852;50.082;18.554;2024-01-15T04:05:09;10.0;;;6.1;;
23360;SDS011;11852;50.082;18.554;2024-01-15T04:06:13;11.0;;;5.9;;
23360;SDS011;11852;50.082;18.554;2024-01-15T04:07:18;11.0;;;6.2;;
23360;SDS011;11852;50.082;18.554;2024-01-15T04:08:23;12.1;;;6.5;;
23360;SDS011;11852;50.082;18.554;2024-01-15T04:09:27;12.4;;;6.7;;
23360;SDS011;11852;50.082;18.554;2024-01-15T04:10:30;12.4;;;6.7;;
23360;SDS011;11852;50.082;18.554;2024-01-15T04:11:38;12.4;;;6.7;;
23360;SDS011;11852;50.082;18.554;2024-01-15T04:13:41;12.4;;;6.7;;
23360;SDS011;11852;50.082;18.554;2024-01-15T04:15:03;12.4;;;6.7;;
23360;SDS011;11852;50.082;18.554;2024-01-15T04:16:08;12.6;;;6.0;;
23360;SDS011;11852;50.082;18.554;2024-01-15T04:17:12;14.8;;;6.9;;
23360;SDS011;11852;50.082;18.554;2024-01-15T04:18:17;13.5;;;6.9;;
23360;SDS011;11852;50.082;18.554;2024-01-15T04:19:22;12.3;;;6.6;;
23360;SDS011;11852;50.082;18.554;2024-01-15T04:20:26;13.9;;;7.3;;
23360;SDS011;11852;50.082;18.554;2024-01-15T04:21:31;15.6;;;7.9;;
23360;SDS011;11852;50.082;18.554;2024-01-15T04:22:36;14.7;;;7.5;;
23360;SDS011;11852;50.082;18.554;2024-01-15T04:23:41;13.2;;;6.6;;
23360;SDS011;11852;50.082;18.554;2024-01-15T04:24:45;13.4;;;6.7;;
23360;SDS011;11852;50.082;18.554;2024-01-15T04:25:50;13.5;;;7.0;;
23360;SDS011;11852;50.082;18.554;2024-01-15T04:26:55;15.8;;;8.0;;
23360;SDS011;11852;50.082;18.554;2024-01-15T04:28:00;14.8;;;8.1;;
23360;SDS011;11852;50.082;18.554;2024-01-15T04:29:07;17.5;;;9.5;;
23360;SDS011;11852;50.082;18.554;2024-01-15T04:30:12;12.9;;;7.0;;
23360;SDS011;11852;50.082;18.554;2024-01-15T04:31:22;12.5;;;6.7;;
23360;SDS011;11852;50.082;18.554;2024-01-15T04:32:28;11.6;;;6.5;;
23360;SDS011;11852;50.082;18.554;2024-01-15T04:33:32;12.8;;;6.3;;
23360;SDS011;11852;50.082;18.554;2024-01-15T04:34:37;13.4;;;6.9;;
23360;SDS011;11852;50.082;18.554;2024-01-15T04:35:42;15.5;;;7.6;;
23360;SDS011;11852;50.082;18.554;2024-01-15T04:36:46;15.4;;;7.8;;
23360;SDS011;11852;50.082;18.554;2024-01-15T04:37:51;13.4;;;7.0;;
23360;SDS011;11852;50.082;18.554;2024-01-15T04:38:56;13.3;;;7.2;;
23360;SDS011;11852;50.082;18.554;2024-01-15T04:40:01;13.7;;;6.8;;
23360;SDS011;11852;50.082;18.554;2024-01-15T04:41:05;12.9;;;6.6;;
23360;SDS011;11852;50.082;18.554;2024-01-15T04:42:13;13.2;;;7.0;;
23360;SDS011;11852;50.082;18.554;2024-01-15T04:43:17;11.6;;;6.4;;
23360;SDS011;11852;50.082;18.554;2024-01-15T04:44:22;11.6;;;6.2;;
23360;SDS011;11852;50.082;18.554;2024-01-15T04:45:29;11.3;;;5.8;;
23360;SDS011;11852;50.082;18.554;2024-01-15T04:46:34;11.8;;;6.5;;
23360;SDS011;11852;50.082;18.554;2024-01-15T04:47:39;12.2;;;6.2;;
23360;SDS011;11852;50.082;18.554;2024-01-15T04:48:44;12.7;;;6.8;;
23360;SDS011;11852;50.082;18.554;2024-01-15T04:49:48;11.8;;;6.8;;
23360;SDS011;11852;50.082;18.554;2024-01-15T04:50:53;12.3;;;6.3;;
23360;SDS011;11852;50.082;18.554;2024-01-15T04:51:58;11.5;;;6.4;;
23360;SDS011;11852;50.082;18.554;2024-01-15T04:53:03;11.6;;;6.3;;
23360;SDS011;11852;50.082;18.554;2024-01-15T04:54:07;12.4;;;6.8;;
23360;SDS011;11852;50.082;18.554;2024-01-15T04:55:15;12.6;;;6.7;;
23360;SDS011;11852;50.082;18.554;2024-01-15T04:56:22;11.4;;;6.3;;
23360;SDS011;11852;50.082;18.554;2024-01-15T04:57:27;12.4;;;7.3;;
23360;SDS011;11852;50.082;18.554;2024-01-15T04:58:32;13.7;;;6.9;;
23360;SDS011;11852;50.082;18.554;2024-01-15T04:59:36;11.1;;;6.6;;
23360;SDS011;11852;50.082;18.554;2024-01-15T05:00:41;12.1;;;6.2;;
23360;SDS011;11852;50.082;18.554;2024-01-15T05:01:46;13.5;;;7.2;;
23360;SDS011;11852;50.082;18.554;2024-01-15T05:02:51;12.5;;;6.9;;
23360;SDS011;11852;50.082;18.554;2024-01-15T05:03:55;12.5;;;6.3;;
23360;SDS011;11852;50.082;18.554;2024-01-15T05:05:00;12.3;;;6.6;;
23360;SDS011;11852;50.082;18.554;2024-01-15T05:06:05;13.4;;;7.3;;
23360;SDS011;11852;50.082;18.554;2024-01-15T05:07:09;11.8;;;6.4;;
23360;SDS011;11852;50.082;18.554;2024-01-15T05:08:14;12.7;;;6.9;;
23360;SDS011;11852;50.082;18.554;2024-01-15T05:09:19;12.9;;;6.4;;
23360;SDS011;11852;50.082;18.554;2024-01-15T05:10:23;12.5;;;6.9;;
23360;SDS011;11852;50.082;18.554;2024-01-15T05:11:28;14.8;;;7.8;;
23360;SDS011;11852;50.082;18.554;2024-01-15T05:12:33;13.3;;;7.4;;
23360;SDS011;11852;50.082;18.554;2024-01-15T05:13:37;12.6;;;7.2;;
23360;SDS011;11852;50.082;18.554;2024-01-15T05:14:42;14.1;;;7.0;;
23360;SDS011;11852;50.082;18.554;2024-01-15T05:15:47;15.5;;;7.1;;
23360;SDS011;11852;50.082;18.554;2024-01-15T05:16:51;12.4;;;6.6;;
23360;SDS011;11852;50.082;18.554;2024-01-15T05:17:59;12.7;;;6.5;;
23360;SDS011;11852;50.082;18.554;2024-01-15T05:19:04;13.1;;;7.2;;
23360;SDS011;11852;50.082;18.554;2024-01-15T05:20:09;13.2;;;7.1;;
23360;SDS011;11852;50.082;18.554;2024-01-15T05:21:13;12.9;;;6.8;;
23360;SDS011;11852;50.082;18.554;2024-01-15T05:22:18;13.8;;;7.0;;
23360;SDS011;11852;50.082;18.554;2024-01-15T05:23:23;13.0;;;7.1;;
23360;SDS011;11852;50.082;18.554;2024-01-15T05:24:27;14.1;;;7.3;;
23360;SDS011;11852;50.082;18.554;2024-01-15T05:25:32;13.0;;;6.5;;
23360;SDS011;11852;50.082;18.554;2024-01-15T05:26:37;11.1;;;6.6;;
23360;SDS011;11852;50.082;18.554;2024-01-15T05:27:41;10.3;;;5.6;;
23360;SDS011;11852;50.082;18.554;2024-01-15T05:28:46;14.1;;;6.9;;
23360;SDS011;11852;50.082;18.554;2024-01-15T05:29:51;11.1;;;5.9;;
23360;SDS011;11852;50.082;18.554;2024-01-15T05:30:56;11.2;;;5.8;;
23360;SDS011;11852;50.082;18.554;2024-01-15T05:32:00;10.8;;;5.7;;
23360;SDS011;11852;50.082;18.554;2024-01-15T05:33:05;12.2;;;7.0;;
23360;SDS011;11852;50.082;18.554;2024-01-15T05:34:10;11.9;;;6.1;;
23360;SDS011;11852;50.082;18.554;2024-01-15T05:35:14;11.3;;;6.0;;
23360;SDS011;11852;50.082;18.554;2024-01-15T05:36:19;10.6;;;6.0;;
23360;SDS011;11852;50.082;18.554;2024-01-15T05:37:24;10.3;;;5.8;;
23360;SDS011;11852;50.082;18.554;2024-01-15T05:38:29;11.1;;;6.3;;
23360;SDS011;11852;50.082;18.554;2024-01-15T05:39:33;11.2;;;6.2;;
23360;SDS011;11852;50.082;18.554;2024-01-15T05:40:38;10.2;;;5.9;;
23360;SDS011;11852;50.082;18.554;2024-01-15T05:41:43;12.9;;;6.9;;
23360;SDS011;11852;50.082;18.554;2024-01-15T05:42:50;12.9;;;7.1;;
23360;SDS011;11852;50.082;18.554;2024-01-15T05:43:55;12.3;;;6.4;;
23360;SDS011;11852;50.082;18.554;2024-01-15T05:45:00;12.6;;;6.9;;
23360;SDS011;11852;50.082;18.554;2024-01-15T05:46:04;12.3;;;6.6;;
23360;SDS011;11852;50.082;18.554;2024-01-15T05:47:09;13.9;;;7.4;;
23360;SDS011;11852;50.082;18.554;2024-01-15T05:48:14;16.3;;;8.3;;
23360;SDS011;11852;50.082;18.554;2024-01-15T05:49:18;14.6;;;7.8;;
23360;SDS011;11852;50.082;18.554;2024-01-15T05:50:23;15.5;;;8.1;;
23360;SDS011;11852;50.082;18.554;2024-01-15T05:51:28;15.1;;;7.6;;
23360;SDS011;11852;50.082;18.554;2024-01-15T05:52:33;15.0;;;7.6;;
23360;SDS011;11852;50.082;18.554;2024-01-15T05:53:37;15.1;;;7.3;;
23360;SDS011;11852;50.082;18.554;2024-01-15T05:54:42;13.1;;;7.2;;
23360;SDS011;11852;50.082;18.554;2024-01-15T05:55:47;16.6;;;7.8;;
23360;SDS011;11852;50.082;18.554;2024-01-15T05:56:52;17.8;;;8.1;;
23360;SDS011;11852;50.082;18.554;2024-01-15T05:57:56;16.3;;;8.7;;
23360;SDS011;11852;50.082;18.554;2024-01-15T05:59:01;18.6;;;8.8;;
23360;SDS011;11852;50.082;18.554;2024-01-15T06:00:06;16.5;;;8.5;;
23360;SDS011;11852;50.082;18.554;2024-01-15T06:01:11;17.4;;;8.9;;
23360;SDS011;11852;50.082;18.554;2024-01-15T06:02:15;18.5;;;9.6;;
23360;SDS011;11852;50.082;18.554;2024-01-15T06:03:20;20.0;;;10.3;;
23360;SDS011;11852;50.082;18.554;2024-01-15T06:04:25;17.0;;;9.3;;
23360;SDS011;11852;50.082;18.554;2024-01-15T06:05:29;20.1;;;10.5;;
23360;SDS011;11852;50.082;18.554;2024-01-15T06:06:34;16.8;;;8.8;;
23360;SDS011;11852;50.082;18.554;2024-01-15T06:07:39;18.3;;;9.9;;
23360;SDS011;11852;50.082;18.554;2024-01-15T06:08:43;15.8;;;8.3;;
23360;SDS011;11852;50.082;18.554;2024-01-15T06:09:48;18.2;;;9.6;;
23360;SDS011;11852;50.082;18.554;2024-01-15T06:10:53;16.4;;;8.4;;
23360;SDS011;11852;50.082;18.554;2024-01-15T06:11:57;16.1;;;8.8;;
23360;SDS011;11852;50.082;18.554;2024-01-15T06:13:02;16.7;;;8.8;;
23360;SDS011;11852;50.082;18.554;2024-01-15T06:14:07;19.0;;;9.5;;
23360;SDS011;11852;50.082;18.554;2024-01-15T06:15:11;18.6;;;9.8;;
23360;SDS011;11852;50.082;18.554;2024-01-15T06:16:16;19.2;;;9.2;;
23360;SDS011;11852;50.082;18.554;2024-01-15T06:17:21;16.8;;;8.6;;
23360;SDS011;11852;50.082;18.554;2024-01-15T06:18:26;17.5;;;9.2;;
23360;SDS011;11852;50.082;18.554;2024-01-15T06:19:30;16.5;;;8.1;;
23360;SDS011;11852;50.082;18.554;2024-01-15T06:20:35;17.7;;;8.9;;
23360;SDS011;11852;50.082;18.554;2024-01-15T06:21:40;17.8;;;8.9;;
23360;SDS011;11852;50.082;18.554;2024-01-15T06:22:45;16.7;;;8.1;;
23360;SDS011;11852;50.082;18.554;2024-01-15T06:23:49;14.5;;;7.8;;
23360;SDS011;11852;50.082;18.554;2024-01-15T06:24:54;16.2;;;7.9;;
23360;SDS011;11852;50.082;18.554;2024-01-15T06:25:59;13.6;;;7.2;;
23360;SDS011;11852;50.082;18.554;2024-01-15T06:27:04;14.1;;;7.3;;
23360;SDS011;11852;50.082;18.554;2024-01-15T06:28:08;12.7;;;6.9;;
23360;SDS011;11852;50.082;18.554;2024-01-15T06:29:13;13.9;;;7.2;;
23360;SDS011;11852;50.082;18.554;2024-01-15T06:30:18;13.0;;;6.9;;
23360;SDS011;11852;50.082;18.554;2024-01-15T06:31:23;14.0;;;7.3;;
23360;SDS011;11852;50.082;18.554;2024-01-15T06:32:27;14.3;;;7.1;;
23360;SDS011;11852;50.082;18.554;2024-01-15T06:33:32;12.4;;;7.0;;
23360;SDS011;11852;50.082;18.554;2024-01-15T06:34:37;12.8;;;6.6;;
23360;SDS011;11852;50.082;18.554;2024-01-15T06:35:41;14.0;;;7.3;;
23360;SDS011;11852;50.082;18.554;2024-01-15T06:36:46;13.3;;;6.8;;